Terminal Aerodrome Forecast
Issued by NWS Lubbock, TX

Home | Current Version | Previous Version | Text Only | Print | Product List | Glossary On
Versions: 1 2 3 4 5 6 7 8 9 10 11 12 13
238
FTUS44 KLUB 191706
TAFLBB
TAF
KLBB 191706Z 1918/2018 18011KT P6SM FEW120 BKN250
     FM201000 19011KT P6SM BKN020 BKN120=

USA.gov is the U.S. government's official web portal to all federal, state and local government web resources and services.